• Join FlightAware (Why Join?)
  • Login
  • US Flag 
11:22PM EST


 

Airport Tracker/Info


-or-


 

Live Flight TrackerFlight Track Log ✈ AWE719 ✈ 12-Jul-2014 ✈ KPHL - KSFO

Flight Track Log - Related Links

Times and Time Zones

All times are in EDT time to prevent confusion due to time zone crossing. See the AWE719 flight status page for this flight to view local times or setup timezone preferences in your user account.

Time Position Orientation Groundspeed Altitude Reporting Facility
EDT Latitude Longitude Course Direction KTS MPH feet Rate Location/Type
06:54PM 39.9609 -75.0994 29° Northeast 282 325 3,400  Level FlightAware ADS-B (KPHL)
06:55PM 40.0245 -75.1062 302° West 267 307 5,500 2,100 Climbing FlightAware ADS-B (KPHL)
06:56PM 40.0199 -75.2052 254° West 269 310 7,600 1,620 Climbing FlightAware ADS-B (KPHL)
06:57PM 40.0001 -75.2979 254° West 275 316 8,800 1,200 Climbing FlightAware ADS-B (KPHL)
06:58PM 39.9789 -75.3959 254° West 282 325 10,000 1,020 Climbing FlightAware ADS-B (KPHL)
06:59PM 39.9528 -75.5152 254° West 330 380 11,000 720 Climbing FlightAware ADS-B (KDCA)
07:00PM 39.9382 -75.6246 270° West 369 425 11,500 1,500 Climbing FlightAware ADS-B (KPHL)
07:01PM 39.9377 -75.7277 270° West 355 409 13,900 1,800 Climbing FlightAware ADS-B (KPHL)
07:02PM 39.9367 -75.8857 270° West 367 422 15,200 1,140 Climbing FlightAware ADS-B (KPHL)
07:02PM 39.9362 -75.9745 270° West 379 436 15,900 1,260 Climbing FlightAware ADS-B (KAPG)
07:03PM 39.9354 -76.0695 270° West 377 434 17,000 1,440 Climbing FlightAware ADS-B (KAPG)
07:04PM 39.9347 -76.1580 269° West 383 441 17,800 1,200 Climbing FlightAware ADS-B (KAPG)
07:04PM 39.9340 -76.2377 269° West 389 448 18,500 1,200 Climbing FlightAware ADS-B (KAPG)
07:05PM 39.9332 -76.3197 269° West 391 450 19,200 1,140 Climbing FlightAware ADS-B (KDCA)
07:05PM 39.9323 -76.3902 268° West 395 455 19,700 900 Climbing FlightAware ADS-B (KAPG)
07:06PM 39.9257 -76.4374 253° West 403 464 20,000 960 Climbing FlightAware ADS-B (KAPG)
07:06PM 39.9009 -76.5311 251° West 408 470 20,700 1,080 Climbing FlightAware ADS-B (KAPG)
07:07PM 39.8829 -76.5987 251° West 411 473 21,300 960 Climbing FlightAware ADS-B (KDCA)
07:08PM 39.8580 -76.6915 251° West 419 482 22,000 960 Climbing FlightAware ADS-B (KAPG)
07:08PM 39.8251 -76.8137 251° West 422 486 22,800 960 Climbing FlightAware ADS-B (KAPG)
07:09PM 39.8071 -76.8801 251° West 426 490 23,200 780 Climbing FlightAware ADS-B (KJYO)
07:09PM 39.8048 -76.8886 251° West 427 491 23,200 600 Level FlightAware ADS-B (KDCA)
07:10PM 39.7805 -76.9780 251° West 435 501 23,600 660 Climbing FlightAware ADS-B (KJYO)
07:10PM 39.7988 -76.9107 251° West 436 502 23,700 1,440 Climbing FlightAware ADS-B (KDCA)
07:10PM 39.7605 -77.0511 251° West 432 497 24,300 1,200 Climbing FlightAware ADS-B (KJYO)
07:10PM 39.7450 -77.1079 251° West 437 503 24,600 720 Climbing FlightAware ADS-B (KAPG)
07:11PM 39.7389 -77.1304 251° West 438 504 24,700 840 Climbing FlightAware ADS-B (KJYO)
07:11PM 39.7174 -77.2090 251° West 440 506 25,200 900 Climbing FlightAware ADS-B (KAPG)
07:11PM 39.7082 -77.2424 251° West 440 506 25,400 960 Climbing FlightAware ADS-B (KJYO)
07:12PM 39.6888 -77.3130 251° West 440 506 25,900 1,140 Climbing FlightAware ADS-B (KJYO)
07:12PM 39.6799 -77.3449 250° West 441 507 26,200 1,080 Climbing FlightAware ADS-B (KAPG)
07:12PM 39.6661 -77.3949 251° West 439 505 26,500 720 Climbing FlightAware ADS-B (KJYO)
07:13PM 39.6433 -77.4773 251° West 441 507 26,900 720 Climbing FlightAware ADS-B (KJYO)
07:13PM 39.6227 -77.5514 251° West 446 513 27,300 660 Climbing FlightAware ADS-B (KJYO)
07:14PM 39.6025 -77.6240 251° West 449 517 27,600 600 Climbing FlightAware ADS-B (KJYO)
07:14PM 39.5796 -77.7058 251° West 452 520 27,900 660 Climbing FlightAware ADS-B (KJYO)
07:15PM 39.5579 -77.7831 251° West 455 524 28,300 660 Climbing FlightAware ADS-B (KJYO)
07:15PM 39.5368 -77.8583 250° West 457 526 28,600 660 Climbing FlightAware ADS-B (KJYO)
07:16PM 39.5153 -77.9346 250° West 459 528 29,000 780 Climbing FlightAware ADS-B (KJYO)
07:16PM 39.4930 -78.0134 250° West 460 529 29,400 900 Climbing FlightAware ADS-B (KJYO)
07:17PM 39.4710 -78.0909 250° West 457 526 29,900 480 Climbing FlightAware ADS-B (KJYO)
07:18PM 39.4417 -78.1939 250° West 467 537 30,000 60 Climbing FlightAware ADS-B (KJYO)
07:18PM 39.4208 -78.2668 250° West 471 542 30,000  Level FlightAware ADS-B (KJYO)
07:19PM 39.3603 -78.4797 250° West 467 537 30,000  Level Washington Center
07:20PM 39.3147 -78.6392 250° West 467 537 30,000  Level Washington Center
07:21PM 39.2689 -78.7981 250° West 467 537 30,000  Level Washington Center
07:22PM 39.2228 -78.9542 249° West 467 537 30,000  Level Washington Center
07:23PM 39.1769 -79.1072 249° West 467 537 30,000  Level Washington Center
07:24PM 39.1372 -79.2497 250° West 467 537 30,000  Level Washington Center
07:25PM 39.0881 -79.4211 250° West 467 537 30,000  Level Washington Center
07:32PM 38.7892 -80.3850 249° West 460 529 30,000  Level FlightAware ADS-B
07:32PM 38.7619 -80.4730 249° West 459 528 30,000  Level FlightAware ADS-B
07:33PM 38.7285 -80.5803 249° West 458 527 30,000  Level FlightAware ADS-B
07:34PM 38.6834 -80.7245 249° West 457 526 30,000  Level FlightAware ADS-B
07:35PM 38.6547 -80.8160 249° West 458 527 30,000  Level FlightAware ADS-B
07:35PM 38.6200 -80.9222 249° West 461 531 30,000  Level Indianapolis Center
07:36PM 38.5719 -81.0731 248° West 460 529 30,000  Level Indianapolis Center
07:37PM 38.5239 -81.2253 248° West 460 529 30,000  Level Indianapolis Center
07:38PM 38.4742 -81.3797 248° West 460 529 30,000  Level Indianapolis Center
07:39PM 38.4247 -81.5344 248° West 460 529 30,000  Level Indianapolis Center
07:40PM 38.3764 -81.6875 248° West 461 531 30,000  Level Indianapolis Center
07:41PM 38.3292 -81.8394 248° West 460 529 30,000  Level Indianapolis Center
07:42PM 38.2869 -81.9933 251° West 460 529 30,000  Level Indianapolis Center
07:44PM 38.2442 -82.1450 250° West 459 528 30,000  Level Indianapolis Center
07:45PM 38.2014 -82.2958 250° West 457 526 30,000  Level Indianapolis Center
07:50PM 37.9661 -83.1132 250° West 453 521 30,000  Level FlightAware ADS-B
07:55PM 37.7500 -83.8403 249° West 445 512 30,000  Level FlightAware ADS-B (KBRY)
07:56PM 37.7038 -83.9928 249° West 445 512 30,000  Level FlightAware ADS-B (KBRY)
07:57PM 37.6687 -84.1084 249° West 447 514 30,000  Level FlightAware ADS-B (KBRY)
07:58PM 37.6165 -84.2790 249° West 448 516 30,000  Level FlightAware ADS-B (KBRY)
07:59PM 37.5691 -84.4327 249° West 456 525 30,000  Level FlightAware ADS-B (KBRY)
08:00PM 37.5227 -84.5828 249° West 453 521 30,000  Level FlightAware ADS-B (KBRY)
08:01PM 37.4770 -84.7302 249° West 452 520 30,000  Level FlightAware ADS-B (KBRY)
08:02PM 37.4312 -84.8780 249° West 452 520 30,000  Level FlightAware ADS-B (KBRY)
08:02PM 37.4002 -84.9771 249° West 451 519 30,000  Level FlightAware ADS-B
08:03PM 37.3698 -85.0745 249° West 453 521 30,000  Level FlightAware ADS-B
08:04PM 37.3462 -85.1493 248° West 453 521 30,000  Level FlightAware ADS-B
08:04PM 37.3227 -85.2235 249° West 451 519 30,000  Level FlightAware ADS-B
08:05PM 37.2984 -85.3004 248° West 452 520 30,000  Level FlightAware ADS-B
08:05PM 37.2657 -85.4029 248° West 451 519 30,000  Level FlightAware ADS-B
08:06PM 37.2406 -85.4816 248° West 451 519 30,000  Level FlightAware ADS-B
08:07PM 37.2098 -85.5782 248° West 450 518 30,000  Level FlightAware ADS-B
08:07PM 37.1873 -85.6484 248° West 449 517 30,000  Level FlightAware ADS-B
08:08PM 37.1458 -85.7772 248° West 447 514 30,000  Level FlightAware ADS-B (KBRY)
08:09PM 37.1116 -85.8827 248° West 448 516 30,000  Level FlightAware ADS-B
08:10PM 37.0512 -86.0687 248° West 452 520 30,000  Level FlightAware ADS-B (KBRY)
08:11PM 37.0035 -86.2147 248° West 455 524 30,000 60 Level FlightAware ADS-B (KBRY)
08:12PM 36.9724 -86.3094 248° West 456 525 30,100 60 Climbing FlightAware ADS-B (KBRY)
08:12PM 36.9454 -86.3918 249° West 456 525 30,100 -120 Level FlightAware ADS-B
08:13PM 36.9242 -86.4746 256° West 457 526 30,000 -120 Descending FlightAware ADS-B
08:13PM 36.9043 -86.5930 259° West 457 526 30,000 60 Level FlightAware ADS-B
08:14PM 36.8901 -86.6797 259° West 456 525 30,100  Climbing FlightAware ADS-B
08:15PM 36.8776 -86.7572 259° West 452 520 30,000 -120 Descending FlightAware ADS-B
08:16PM 36.8893 -86.6848 259° West 446 513 30,000  Level FlightAware ADS-B (KBRY)
08:16PM 36.8419 -86.9744 259° West 452 520 30,000  Level Indianapolis Center
08:17PM 36.8219 -87.0989 259° West 442 509 30,000  Level Memphis Center
08:18PM 36.7964 -87.2486 258° West 441 507 30,000  Level Memphis Center
08:19PM 36.7708 -87.3986 258° West 441 507 30,000  Level Memphis Center
08:20PM 36.7456 -87.5492 258° West 441 507 30,000  Level Memphis Center
08:21PM 36.7203 -87.7006 258° West 442 509 30,000  Level Memphis Center
08:22PM 36.6922 -87.8528 257° West 445 512 30,000  Level Memphis Center
08:23PM 36.6672 -88.0064 259° West 447 514 30,000  Level Memphis Center
08:24PM 36.6367 -88.1797 258° West 447 514 30,000  Level Memphis Center
08:25PM 36.6100 -88.3325 258° West 448 516 30,000  Level Memphis Center
08:26PM 36.5814 -88.4842 257° West 448 516 30,000  Level Memphis Center
08:27PM 36.5547 -88.6344 258° West 448 516 30,000  Level Memphis Center
08:28PM 36.5239 -88.7842 256° West 448 516 30,000  Level Memphis Center
08:29PM 36.4817 -88.9289 250° West 448 516 30,000  Level Memphis Center
08:30PM 36.4431 -89.0753 252° West 447 514 30,000  Level Memphis Center
08:31PM 36.4031 -89.2239 252° West 445 512 30,000  Level Memphis Center
08:32PM 36.3633 -89.3717 252° West 446 513 30,000  Level Memphis Center
08:33PM 36.3211 -89.5358 252° West 459 528 30,000  Level Memphis Center
08:34PM 36.2819 -89.6825 252° West 451 519 30,000  Level Memphis Center
08:35PM 36.2436 -89.8294 252° West 451 519 30,000  Level Memphis Center
08:36PM 36.2047 -89.9772 252° West 451 519 30,000  Level Memphis Center
08:37PM 36.1653 -90.1256 252° West 451 519 30,000  Level Memphis Center
08:38PM 36.1264 -90.2758 252° West 455 524 30,000  Level Memphis Center
08:39PM 36.0878 -90.4256 252° West 455 524 30,000  Level Memphis Center
08:40PM 36.0414 -90.6053 252° West 456 525 30,000  Level Memphis Center
08:41PM 36.0019 -90.7542 252° West 456 525 30,000  Level Memphis Center
08:42PM 35.9644 -90.9033 253° West 456 525 30,000  Level Memphis Center
08:43PM 35.9247 -91.0533 252° West 456 525 30,000  Level Memphis Center
08:44PM 35.8992 -91.2058 258° West 456 525 30,000  Level Memphis Center
08:45PM 35.8794 -91.3608 261° West 456 525 30,000  Level Memphis Center
08:51PM 35.7381 -92.2430 259° West 466 536 30,000  Level FlightAware ADS-B
08:52PM 35.7237 -92.3302 259° West 467 537 30,300 660 Climbing FlightAware ADS-B
08:52PM 35.7056 -92.4400 259° West 469 540 30,900 360 Climbing FlightAware ADS-B
08:56PM 35.6166 -92.9719 258° West 469 540 32,000 180 Climbing FlightAware ADS-B
08:57PM 35.5810 -93.1801 258° West 469 540 32,000  Level FlightAware ADS-B
08:58PM 35.5624 -93.2882 258° West 469 540 32,000  Level FlightAware ADS-B
08:58PM 35.5448 -93.3899 258° West 469 540 32,000  Level FlightAware ADS-B
08:59PM 35.5272 -93.4908 258° West 469 540 32,000  Level FlightAware ADS-B
09:00PM 35.5072 -93.6055 258° West 469 540 32,000  Level FlightAware ADS-B
09:00PM 35.4969 -93.6643 258° West 470 541 32,000  Level FlightAware ADS-B
09:02PM 35.4556 -93.9028 258° West 469 540 32,000  Level Fort Worth Center
09:03PM 35.4269 -94.0633 258° West 469 540 32,000  Level Fort Worth Center
09:04PM 35.3981 -94.2208 257° West 470 541 32,000  Level Fort Worth Center
09:05PM 35.3892 -94.3819 266° West 471 542 32,000  Level Memphis Center
09:06PM 35.3900 -94.5436 270° West 471 542 32,000  Level Memphis Center
09:07PM 35.3906 -94.7053 270° West 471 542 32,000  Level Memphis Center
09:08PM 35.3903 -94.8669 270° West 471 542 32,000  Level Memphis Center
09:09PM 35.3922 -95.0253 271° West 471 542 32,000  Level Fort Worth Center
09:10PM 35.3925 -95.2203 270° West 471 542 32,000  Level Fort Worth Center
09:11PM 35.3925 -95.3825 270° West 473 544 32,000  Level Fort Worth Center
09:12PM 35.3922 -95.5439 270° West 473 544 32,000  Level Fort Worth Center
09:13PM 35.3914 -95.7064 270° West 474 545 32,000  Level Fort Worth Center
09:14PM 35.3908 -95.8667 270° West 471 542 32,000  Level Fort Worth Center
09:15PM 35.3894 -96.0183 269° West 473 544 32,000  Level Fort Worth Center
09:16PM 35.3906 -96.1783 271° West 470 541 32,000  Level Fort Worth Center
09:22PM 35.3812 -97.1433 269° West 467 537 32,000  Level FlightAware ADS-B
09:23PM 35.3780 -97.3758 269° West 465 535 32,000  Level FlightAware ADS-B
09:24PM 35.3765 -97.4653 269° West 465 535 32,000  Level FlightAware ADS-B
09:25PM 35.3751 -97.5486 269° West 466 536 32,000  Level FlightAware ADS-B
09:25PM 35.3733 -97.6551 269° West 467 537 32,000  Level FlightAware ADS-B
09:26PM 35.3706 -97.8125 269° West 468 539 32,000  Level Fort Worth Center
09:27PM 35.3681 -97.9708 269° West 468 539 32,000  Level Fort Worth Center
09:28PM 35.3647 -98.1303 269° West 468 539 32,000  Level Fort Worth Center
09:29PM 35.3608 -98.3197 269° West 466 536 32,000 -60 Level Fort Worth Center
09:30PM 35.3567 -98.4817 268° West 465 535 31,900  Descending Fort Worth Center
09:37PM 35.3297 -99.4246 268° West 466 536 32,000  Climbing FlightAware ADS-B (KBFK)
09:38PM 35.3221 -99.6545 268° West 464 534 32,000  Level FlightAware ADS-B (KBFK)
09:40PM 35.3107 -99.9759 268° West 464 534 32,000  Level FlightAware ADS-B (KBFK)
09:41PM 35.3081 -100.0728 268° West 466 536 32,000  Level Fort Worth Center
09:42PM 35.3022 -100.2317 267° West 466 536 32,000  Level Fort Worth Center
09:43PM 35.2950 -100.4222 267° West 466 536 32,000  Level Fort Worth Center
09:44PM 35.2881 -100.5786 267° West 464 534 32,000 -60 Level Fort Worth Center
09:45PM 35.2817 -100.7350 267° West 463 533 31,900  Descending Fort Worth Center
09:46PM 35.2756 -100.8747 267° West 462 532 32,000  Climbing Fort Worth Center
09:47PM 35.2681 -101.0303 267° West 460 529 32,000  Level Fort Worth Center
09:48PM 35.2594 -101.2189 267° West 461 531 32,000  Level Fort Worth Center
09:49PM 35.2525 -101.3758 267° West 462 532 32,100  Climbing Fort Worth Center
09:50PM 35.2433 -101.5319 266° West 462 532 32,000 -60 Descending Fort Worth Center
09:51PM 35.2433 -101.6775 270° West 462 532 32,000  Level Fort Worth Center
09:52PM 35.2692 -101.8317 282° West 465 535 32,000  Level Fort Worth Center
09:53PM 35.3167 -102.0086 288° West 462 532 32,000  Level Fort Worth Center
09:54PM 35.3561 -102.1575 288° West 461 531 32,000  Level Fort Worth Center
09:55PM 35.3950 -102.3058 288° West 461 531 32,000  Level Fort Worth Center
09:56PM 35.4328 -102.4528 288° West 458 527 32,000  Level Fort Worth Center
10:01PM 35.6628 -103.2523 304° West 457 526 32,000  Level FlightAware ADS-B (KROW)
10:01PM 35.6654 -103.2570 304° West 457 526 32,000  Level FlightAware ADS-B (KROW)
10:02PM 35.7175 -103.3508 304° West 457 526 32,000  Level Albuquerque Center
10:03PM 35.7867 -103.4828 303° West 457 526 32,000  Level Albuquerque Center
10:04PM 35.8569 -103.6158 303° West 457 526 32,000  Level Albuquerque Center
10:05PM 35.9378 -103.7717 303° West 458 527 32,000  Level Albuquerque Center
10:06PM 36.0050 -103.9069 302° West 458 527 32,000  Level Albuquerque Center
10:07PM 36.0711 -104.0442 301° West 458 527 32,000  Level Albuquerque Center
10:08PM 36.1386 -104.1811 301° West 460 529 32,000  Level Albuquerque Center
10:09PM 36.2061 -104.3189 301° West 462 532 32,000  Level Albuquerque Center
10:10PM 36.2733 -104.4572 301° West 463 533 32,000  Level Albuquerque Center
10:11PM 36.3364 -104.5981 299° West 463 533 32,000  Level Albuquerque Center
10:13PM 36.4003 -104.7408 299° West 466 536 32,000  Level Albuquerque Center
10:18PM 36.7048 -105.5827 285° West 477 549 32,000  Level FlightAware ADS-B
10:19PM 36.7414 -105.7518 285° West 473 544 32,000  Level FlightAware ADS-B
10:20PM 36.7759 -105.9131 285° West 471 542 32,000  Level FlightAware ADS-B
10:21PM 36.7953 -106.0042 285° West 471 542 32,000  Level FlightAware ADS-B (KMTJ)
10:21PM 36.8123 -106.0844 285° West 471 542 32,000  Level FlightAware ADS-B (KMTJ)
10:22PM 36.8268 -106.1528 285° West 470 541 32,000 60 Level FlightAware ADS-B (KMTJ)
10:22PM 36.8472 -106.2498 285° West 468 539 32,100 60 Climbing FlightAware ADS-B (KANK)
10:23PM 36.8656 -106.3374 285° West 466 536 32,100 -120 Level FlightAware ADS-B (KMTJ)
10:23PM 36.8815 -106.4134 285° West 465 535 32,000 -120 Descending FlightAware ADS-B (KANK)
10:24PM 36.8979 -106.4924 285° West 465 535 32,000  Level FlightAware ADS-B (KANK)
10:24PM 36.9135 -106.5673 285° West 465 535 32,000  Level FlightAware ADS-B
10:25PM 36.9324 -106.6587 284° West 466 536 32,000  Level FlightAware ADS-B (KABQ)
10:25PM 36.9486 -106.7368 284° West 467 537 32,000  Level FlightAware ADS-B (KMTJ)
10:26PM 36.9648 -106.8157 284° West 471 542 32,000  Level FlightAware ADS-B (KMTJ)
10:26PM 36.9824 -106.9020 284° West 473 544 32,000 60 Level FlightAware ADS-B
10:27PM 37.0014 -106.9950 284° West 473 544 32,100 60 Climbing FlightAware ADS-B
10:28PM 37.0185 -107.0793 284° West 473 544 32,100 -120 Level FlightAware ADS-B (KMTJ)
10:28PM 37.0344 -107.1581 284° West 475 547 32,000 -120 Descending FlightAware ADS-B (KMTJ)
10:29PM 37.0510 -107.2398 284° West 475 547 32,000 60 Level FlightAware ADS-B (KMTJ)
10:29PM 37.0669 -107.3196 284° West 475 547 32,100  Climbing FlightAware ADS-B (KMTJ)
10:30PM 37.0829 -107.3997 284° West 475 547 32,000 -120 Descending FlightAware ADS-B (KMTJ)
10:30PM 37.0986 -107.4785 284° West 475 547 32,000  Level FlightAware ADS-B (KMTJ)
10:31PM 37.1144 -107.5582 284° West 474 545 32,000  Level FlightAware ADS-B (KMTJ)
10:31PM 37.1348 -107.6613 284° West 472 543 32,000  Level FlightAware ADS-B
10:32PM 37.1508 -107.7425 284° West 472 543 32,000  Level FlightAware ADS-B (KANK)
10:32PM 37.1656 -107.8182 284° West 470 541 32,000  Level FlightAware ADS-B (KANK)
10:33PM 37.1823 -107.9040 284° West 470 541 32,000  Level FlightAware ADS-B (KMTJ)
10:33PM 37.1976 -107.9829 284° West 471 542 32,000  Level FlightAware ADS-B (KMTJ)
10:34PM 37.2130 -108.0619 284° West 472 543 32,000  Level FlightAware ADS-B (KMTJ)
10:34PM 37.2287 -108.1432 284° West 472 543 32,000  Level FlightAware ADS-B (KMTJ)
10:35PM 37.2439 -108.2230 283° West 473 544 32,000  Level FlightAware ADS-B (KMTJ)
10:35PM 37.2590 -108.3018 283° West 473 544 32,000  Level FlightAware ADS-B (KMTJ)
10:36PM 37.2753 -108.3873 283° West 471 542 32,000  Level FlightAware ADS-B
10:36PM 37.2939 -108.4848 283° West 471 542 32,000  Level FlightAware ADS-B (KANK)
10:37PM 37.3096 -108.5684 283° West 469 540 32,000  Level FlightAware ADS-B (KMTJ)
10:37PM 37.3250 -108.6506 283° West 469 540 32,000  Level FlightAware ADS-B (KANK)
10:38PM 37.3402 -108.7316 283° West 470 541 32,000  Level FlightAware ADS-B
10:38PM 37.3562 -108.8176 283° West 471 542 32,000  Level FlightAware ADS-B (KANK)
10:39PM 37.3708 -108.8968 283° West 470 541 32,000  Level FlightAware ADS-B
10:39PM 37.3869 -108.9840 283° West 471 542 32,000  Level FlightAware ADS-B
10:40PM 37.4019 -109.0654 283° West 471 542 32,000  Level FlightAware ADS-B
10:41PM 37.4177 -109.1514 283° West 471 542 32,000  Level FlightAware ADS-B
10:41PM 37.4325 -109.2325 283° West 471 542 32,000  Level FlightAware ADS-B (KMTJ)
10:42PM 37.4472 -109.3132 283° West 470 541 32,000  Level FlightAware ADS-B (KMTJ)
10:42PM 37.4615 -109.3924 283° West 470 541 32,000  Level FlightAware ADS-B (KMTJ)
10:43PM 37.4770 -109.4782 283° West 469 540 32,000 60 Level FlightAware ADS-B (KMTJ)
10:43PM 37.4910 -109.5569 283° West 467 537 32,100  Climbing FlightAware ADS-B (KMTJ)
10:44PM 37.5052 -109.6361 283° West 466 536 32,000 -120 Descending FlightAware ADS-B (KMTJ)
10:44PM 37.5187 -109.7122 283° West 465 535 32,000  Level FlightAware ADS-B (KMTJ)
10:44PM 37.5265 -109.7558 282° West 465 535 32,000  Level FlightAware ADS-B
10:45PM 37.5413 -109.8397 282° West 464 534 32,000  Level FlightAware ADS-B
10:45PM 37.5549 -109.9171 282° West 464 534 32,000  Level FlightAware ADS-B (KMTJ)
10:46PM 37.5704 -110.0057 282° West 463 533 32,000  Level FlightAware ADS-B
10:46PM 37.5857 -110.0929 282° West 464 534 32,000  Level FlightAware ADS-B (KMTJ)
10:47PM 37.5998 -110.1742 282° West 465 535 32,000  Level FlightAware ADS-B (KMTJ)
10:48PM 37.6187 -110.2830 282° West 465 535 32,000  Level FlightAware ADS-B (KMTJ)
10:50PM 37.6711 -110.5897 282° West 465 535 32,000  Level FlightAware ADS-B (KMTJ)
10:50PM 37.6931 -110.7198 282° West 465 535 32,000  Level FlightAware ADS-B (KMTJ)
10:52PM 37.7243 -110.9067 282° West 462 532 32,000  Level FlightAware ADS-B (KMTJ)
10:52PM 37.7416 -111.0102 282° West 461 531 32,000  Level FlightAware ADS-B (KMTJ)
10:53PM 37.7598 -111.1204 282° West 459 528 32,000  Level FlightAware ADS-B
10:54PM 37.7911 -111.3113 282° West 455 524 32,000  Level FlightAware ADS-B
10:55PM 37.8058 -111.4017 282° West 456 525 32,000  Level FlightAware ADS-B (KMTJ)
10:55PM 37.8249 -111.5196 281° West 456 525 32,000  Level FlightAware ADS-B
10:57PM 37.8535 -111.6979 281° West 459 528 32,000  Level FlightAware ADS-B
10:59PM 37.9140 -112.0812 281° West 463 533 32,000  Level FlightAware ADS-B
11:00PM 37.9428 -112.2669 281° West 462 532 32,000  Level FlightAware ADS-B
11:01PM 37.9727 -112.4618 281° West 459 528 32,000  Level FlightAware ADS-B
11:03PM 38.0014 -112.6515 281° West 458 527 32,000  Level FlightAware ADS-B
11:04PM 38.0251 -112.8095 281° West 457 526 32,000  Level FlightAware ADS-B
11:05PM 38.0477 -112.9622 281° West 458 527 32,000  Level FlightAware ADS-B
11:06PM 38.0715 -113.1236 281° West 458 527 32,000  Level FlightAware ADS-B
11:06PM 38.0896 -113.2480 280° West 456 525 32,000  Level FlightAware ADS-B
11:07PM 38.1028 -113.3388 280° West 456 525 32,000  Level FlightAware ADS-B
11:08PM 38.1194 -113.4543 280° West 454 522 32,000  Level FlightAware ADS-B
11:08PM 38.1336 -113.5537 280° West 453 521 32,000  Level FlightAware ADS-B
11:09PM 38.1475 -113.6506 280° West 453 521 32,000  Level FlightAware ADS-B
11:10PM 38.1649 -113.7745 280° West 453 521 32,000  Level FlightAware ADS-B
11:11PM 38.1791 -113.8754 288° West 436 502 32,000  Level FlightAware ADS-B
11:12PM 38.2503 -114.0964 294° West 437 503 32,000  Level FlightAware ADS-B
11:13PM 38.2938 -114.2217 294° West 436 502 32,000  Level FlightAware ADS-B
11:14PM 38.3450 -114.3697 294° West 436 502 32,000  Level Salt Lake Center
11:15PM 38.3944 -114.5103 294° West 436 502 32,000  Level Salt Lake Center
11:16PM 38.4131 -114.6875 278° West 430 495 32,000  Level Salt Lake Center
11:17PM 38.3953 -114.8383 261° West 430 495 32,000  Level Salt Lake Center
11:18PM 38.3772 -114.9906 261° West 431 496 32,000  Level Salt Lake Center
11:19PM 38.3581 -115.1475 261° West 442 509 32,000  Level Salt Lake Center
11:20PM 38.3378 -115.3044 261° West 449 517 32,000  Level Salt Lake Center
11:26PM 38.2212 -116.2128 262° West 431 496 32,000  Level FlightAware ADS-B (KVGT)
11:27PM 38.2092 -116.3027 261° West 430 495 32,000  Level FlightAware ADS-B (KVGT)
11:27PM 38.1969 -116.3939 261° West 430 495 32,000  Level FlightAware ADS-B (KVGT)
11:28PM 38.1844 -116.4868 261° West 430 495 32,000  Level FlightAware ADS-B (KVGT)
11:29PM 38.1722 -116.5762 261° West 430 495 32,000  Level FlightAware ADS-B (KVGT)
11:29PM 38.1567 -116.6895 261° West 429 494 32,000  Level FlightAware ADS-B (KVGT)
11:30PM 38.1443 -116.7791 261° West 429 494 32,000  Level FlightAware ADS-B (KVGT)
11:30PM 38.1319 -116.8683 261° West 429 494 32,000  Level FlightAware ADS-B (KVGT)
11:31PM 38.1185 -116.9650 261° West 429 494 32,000  Level FlightAware ADS-B (KVGT)
11:32PM 38.1056 -117.0576 261° West 428 493 32,000  Level FlightAware ADS-B (KVGT)
11:32PM 38.0929 -117.1479 261° West 429 494 32,000  Level FlightAware ADS-B (KVGT)
11:33PM 38.0796 -117.2362 256° West 429 494 32,000  Level FlightAware ADS-B (KVGT)
11:33PM 38.0492 -117.3124 231° Southwest 430 495 32,000  Level FlightAware ADS-B (KVGT)
11:34PM 37.9870 -117.3769 213° Southwest 405 466 32,000  Level FlightAware ADS-B (KVGT)
11:35PM 37.9306 -117.4229 214° Southwest 389 448 32,000  Level FlightAware ADS-B (KVGT)
11:35PM 37.8744 -117.4688 214° Southwest 389 448 32,000  Level FlightAware ADS-B (KVGT)
11:36PM 37.8197 -117.5139 214° Southwest 390 449 32,000  Level FlightAware ADS-B (KVGT)
11:37PM 37.6961 -117.6164 214° Southwest 398 458 32,000  Level Oakland Center
11:38PM 37.6036 -117.6911 213° Southwest 396 456 32,000  Level Oakland Center
11:39PM 37.5214 -117.7817 221° Southwest 395 455 32,000  Level Oakland Center
11:41PM 37.5064 -117.9175 262° West 398 458 32,000  Level Oakland Center
11:42PM 37.5139 -118.0569 274° West 398 458 32,000  Level Oakland Center
11:43PM 37.5214 -118.1975 274° West 400 460 32,000  Level Oakland Center
11:48PM 37.5563 -118.9476 273° West 402 463 32,000  Level FlightAware ADS-B (KAUN)
11:48PM 37.5594 -119.0175 273° West 402 463 32,000  Level FlightAware ADS-B (KAUN)
11:49PM 37.5670 -119.1960 273° West 401 461 32,000  Level FlightAware ADS-B (KAUN)
11:50PM 37.5708 -119.2890 273° West 402 463 32,000  Level FlightAware ADS-B (KAUN)
11:51PM 37.5746 -119.3817 273° West 399 459 32,000  Level FlightAware ADS-B (KAUN)
11:52PM 37.5817 -119.5561 273° West 401 461 32,000  Level FlightAware ADS-B (KAUN)
11:53PM 37.5857 -119.6640 273° West 398 458 32,000  Level FlightAware ADS-B (KAUN)
11:54PM 37.5893 -119.7550 273° West 396 456 32,000  Level FlightAware ADS-B (KAUN)
11:54PM 37.5928 -119.8499 273° West 399 459 32,000  Level FlightAware ADS-B (KAUN)
11:55PM 37.5961 -119.9403 272° West 399 459 32,000  Level FlightAware ADS-B (KAUN)
11:56PM 37.5994 -120.0327 273° West 397 457 32,000 -780 Level FlightAware ADS-B (KAUN)
11:56PM 37.6024 -120.1229 272° West 390 449 31,000 -1,800 Descending FlightAware ADS-B (KAUN)
11:57PM 37.6051 -120.2090 272° West 383 441 29,600 -2,160 Descending FlightAware ADS-B (KAUN)
11:57PM 37.6080 -120.2977 272° West 376 433 28,300 -1,860 Descending FlightAware ADS-B (KAUN)
11:58PM 37.6109 -120.3906 272° West 367 422 27,200 -1,680 Descending FlightAware ADS-B (KAUN)
11:59PM 37.6132 -120.4613 272° West 356 410 26,000 -1,800 Descending FlightAware ADS-B (KAUN)
12:00AM 37.6160 -120.5565 272° West 351 404 24,800 -2,040 Descending FlightAware ADS-B (KAUN)
12:00AM 37.6186 -120.6350 272° West 348 400 23,400 -1,920 Descending FlightAware ADS-B (KAUN)
12:01AM 37.6208 -120.7132 272° West 350 403 22,400 -1,260 Descending FlightAware ADS-B (KAUN)
12:01AM 37.6225 -120.7748 272° West 349 402 22,000 -1,080 Descending FlightAware ADS-B
12:02AM 37.6243 -120.8432 272° West 345 397 21,300 -1,500 Descending FlightAware ADS-B (KAUN)
12:02AM 37.6263 -120.9109 272° West 341 392 20,300 -1,620 Descending FlightAware ADS-B (KAUN)
12:03AM 37.6229 -120.9963 262° West 335 386 19,200 -1,440 Descending FlightAware ADS-B (KAUN)
12:04AM 37.6149 -121.0678 262° West 332 382 18,400 -1,440 Descending FlightAware ADS-B (KAUN)
12:04AM 37.6081 -121.1274 262° West 330 380 17,600 -1,500 Descending FlightAware ADS-B
12:05AM 37.5995 -121.2043 262° West 329 379 16,600 -1,620 Descending FlightAware ADS-B
12:06AM 37.5908 -121.2791 262° West 328 377 15,500 -1,500 Descending FlightAware ADS-B
12:06AM 37.5890 -121.2950 262° West 328 377 15,400 -1,560 Descending FlightAware ADS-B
12:06AM 37.5820 -121.3550 262° West 328 377 14,500 -1,740 Descending FlightAware ADS-B
12:06AM 37.5826 -121.3519 262° West 328 377 14,500 -1,320 Level FlightAware ADS-B
12:07AM 37.5753 -121.4140 262° West 327 376 13,800 -1,500 Descending FlightAware ADS-B
12:07AM 37.5730 -121.4330 262° West 322 371 13,500 -2,040 Descending FlightAware ADS-B
12:07AM 37.5687 -121.4700 262° West 315 362 12,800 -2,280 Descending FlightAware ADS-B
12:08AM 37.5648 -121.5053 262° West 313 360 12,000 -2,520 Descending FlightAware ADS-B
12:08AM 37.5621 -121.5270 262° West 311 358 11,500 -1,860 Descending FlightAware ADS-B
12:08AM 37.5569 -121.5710 260° West 308 354 10,900 -1,500 Descending FlightAware ADS-B
12:08AM 37.5559 -121.5769 258° West 303 349 10,800 -600 Descending FlightAware ADS-B
12:09AM 37.5461 -121.6220 254° West 280 322 10,600 -600 Descending FlightAware ADS-B
12:09AM 37.5417 -121.6414 255° West 270 311 10,400 -1,020 Descending FlightAware ADS-B
12:09AM 37.5359 -121.6680 255° West 253 291 10,100 -1,200 Descending FlightAware ADS-B
12:09AM 37.5347 -121.6731 255° West 251 289 10,000 -1,920 Descending FlightAware ADS-B
12:10AM 37.5306 -121.6910 254° West 248 285 9,600 -2,040 Descending FlightAware ADS-B
12:10AM 37.5292 -121.6978 254° West 246 283 9,400 -1,800 Descending FlightAware ADS-B
12:10AM 37.5253 -121.7150 254° West 246 283 9,100 -1,680 Descending FlightAware ADS-B
12:10AM 37.5235 -121.7226 254° West 247 284 8,900 -2,160 Descending FlightAware ADS-B
12:10AM 37.5202 -121.7370 254° West 248 285 8,500 -2,040 Descending FlightAware ADS-B
12:10AM 37.5178 -121.7477 254° West 252 290 8,300 -1,620 Descending FlightAware ADS-B
12:10AM 37.5152 -121.7590 254° West 251 289 8,100 -1,080 Descending FlightAware ADS-B
12:11AM 37.5124 -121.7720 258° West 249 287 8,000 -1,020 Descending FlightAware ADS-B
12:11AM 37.5119 -121.7760 262° West 248 285 7,900 -900 Descending FlightAware ADS-B
12:11AM 37.5115 -121.7811 266° West 246 283 7,900  Level FlightAware ADS-B
12:11AM 37.5111 -121.7880 268° West 244 281 7,900  Level FlightAware ADS-B
12:11AM 37.5108 -121.7991 268° West 244 281 7,900  Level FlightAware ADS-B (KNUQ)
12:11AM 37.5105 -121.8120 268° West 244 281 7,900  Level FlightAware ADS-B
12:11AM 37.5100 -121.8326 268° West 244 281 7,900  Level FlightAware ADS-B (KNUQ)
12:11AM 37.5099 -121.8340 268° West 244 281 7,900  Level FlightAware ADS-B
12:12AM 37.5095 -121.8560 268° West 243 280 7,900  Level FlightAware ADS-B
12:12AM 37.5092 -121.8601 268° West 242 278 7,900 -840 Level FlightAware ADS-B
12:12AM 37.5088 -121.8780 268° West 240 276 7,700 -840 Descending FlightAware ADS-B
12:12AM 37.5088 -121.8776 268° West 237 273 7,700 -1,200 Level FlightAware ADS-B (KNUQ)
12:12AM 37.5083 -121.8980 268° West 233 268 7,400 -1,920 Descending FlightAware ADS-B
12:12AM 37.5080 -121.9068 268° West 233 268 7,100 -2,400 Descending FlightAware ADS-B (KNUQ)
12:12AM 37.5077 -121.9190 268° West 233 268 6,800 -1,920 Descending FlightAware ADS-B
12:12AM 37.5073 -121.9320 268° West 234 269 6,500 -1,500 Descending FlightAware ADS-B
12:12AM 37.5073 -121.9336 268° West 234 269 6,500 -1,620 Level FlightAware ADS-B (KNUQ)
12:13AM 37.5068 -121.9530 268° West 237 273 6,100 -1,500 Descending FlightAware ADS-B
12:13AM 37.5065 -121.9620 268° West 238 274 6,000 -780 Descending FlightAware ADS-B (KNUQ)
12:13AM 37.5064 -121.9740 268° West 236 272 5,900 -660 Descending FlightAware ADS-B
12:13AM 37.5060 -121.9867 268° West 228 262 5,800  Descending FlightAware ADS-B (KNUQ)
12:13AM 37.5059 -121.9960 268° West 221 254 5,900 300 Climbing FlightAware ADS-B
12:13AM 37.5053 -122.0137 268° West 208 239 5,900  Level FlightAware ADS-B (KNUQ)
12:13AM 37.5054 -122.0160 268° West 207 238 5,900 -900 Level FlightAware ADS-B
12:14AM 37.5048 -122.0310 268° West 199 229 5,700 -1,200 Descending FlightAware ADS-B
12:14AM 37.5046 -122.0379 268° West 196 226 5,500 -1,920 Descending FlightAware ADS-B (KNUQ)
12:14AM 37.5045 -122.0490 269° West 193 222 5,200 -2,100 Descending FlightAware ADS-B
12:14AM 37.5041 -122.0609 269° West 193 222 4,800 -2,040 Descending FlightAware ADS-B (KNUQ)
12:14AM 37.5040 -122.0660 269° West 194 223 4,700 -1,320 Descending FlightAware ADS-B
12:14AM 37.5037 -122.0830 271° West 195 224 4,400 -1,200 Descending FlightAware ADS-B
12:15AM 37.5041 -122.0880 277° West 194 223 4,300 -1,500 Descending FlightAware ADS-B
12:15AM 37.5044 -122.0920 281° West 194 223 4,200 -2,040 Descending FlightAware ADS-B
12:15AM 37.5049 -122.0943 285° West 193 222 4,100 -900 Descending FlightAware ADS-B (KNUQ)
12:15AM 37.5059 -122.0990 290° West 192 221 4,100 -780 Level FlightAware ADS-B
12:15AM 37.5074 -122.1030 293° West 192 221 4,000 -900 Descending FlightAware ADS-B
12:15AM 37.5112 -122.1133 296° West 189 217 3,900 -540 Descending FlightAware ADS-B (KNUQ)
12:15AM 37.5164 -122.1260 297° West 190 219 3,800 -600 Descending FlightAware ADS-B
12:15AM 37.5199 -122.1352 297° West 191 220 3,700 -840 Descending FlightAware ADS-B (KNUQ)
12:15AM 37.5226 -122.1410 298° West 190 219 3,600 -1,200 Descending FlightAware ADS-B
12:16AM 37.5287 -122.1560 298° West 185 213 3,300 -1,020 Descending FlightAware ADS-B
12:16AM 37.5350 -122.1710 298° West 182 209 3,100 -900 Descending FlightAware ADS-B
12:16AM 37.5367 -122.1748 298° West 181 208 3,000 -1,200 Descending FlightAware ADS-B
12:16AM 37.5410 -122.1850 298° West 179 206 2,800 -900 Descending FlightAware ADS-B
12:16AM 37.5418 -122.1868 298° West 177 204 2,700 -780 Descending FlightAware ADS-B
12:16AM 37.5469 -122.1990 298° West 175 201 2,600 -960 Descending FlightAware ADS-B
12:17AM 37.5524 -122.2120 298° West 176 203 2,400 -840 Descending FlightAware ADS-B
12:17AM 37.5583 -122.2260 298° West 178 205 2,200 -1,020 Descending FlightAware ADS-B
12:17AM 37.5643 -122.2400 298° West 179 206 1,900 -1,020 Descending FlightAware ADS-B
12:17AM 37.5702 -122.2540 298° West 180 207 1,700 -780 Descending FlightAware ADS-B
12:18AM 37.5761 -122.2680 298° West 167 192 1,500 -1,020 Descending FlightAware ADS-B
12:18AM 37.5815 -122.2810 298° West 156 180 1,200 -960 Descending FlightAware ADS-B
12:18AM 37.5873 -122.2950 298° West 147 169 1,000 -840 Descending FlightAware ADS-B
12:18AM 37.5895 -122.3001 297° West 149 171 900 -840 Descending FlightAware ADS-B
12:18AM 37.5920 -122.3060 298° West 143 165 800 -600 Descending FlightAware ADS-B
12:19AM 37.5955 -122.3144 298° West 138 159 700 -780 Descending FlightAware ADS-B
12:19AM 37.5966 -122.3170 298° West 134 154 600 -720 Descending FlightAware ADS-B
12:19AM 37.6004 -122.3259 297° West 132 152 500 -840 Descending FlightAware ADS-B
12:19AM 37.6010 -122.3280 298° West 128 147 400 -720 Descending FlightAware ADS-B
12:19AM 37.6027 -122.3310 297° West 128 147 400 -480 Level FlightAware ADS-B
12:19AM 37.6045 -122.3360 298° West 129 148 300 -900 Descending FlightAware ADS-B
12:19AM 37.6087 -122.3450 298° West 126 145 100 -900 Descending FlightAware ADS-B
12:20AM 37.6140 -122.3580 297° West 131 151 -300 Descending FlightAware ADS-B
12:20AM 37.6179 -122.3676 297° West 132 152  Level FlightAware ADS-B